Rixford, Vermont
Current Conditions -  °F | °C
As of 11:15 AM on Wednesday 22 Oct 2014 (Local Time) from KFSO Reporting Station
Light Rain Light Rain  
Wind Chill: 40°   Ceiling: 600
Heat Index: 46°   Visibility: 10mi
Dew Point: 44°   Wind: 13mph
Humidity: 93%   Direction: 10°N
Pressure: 30.23"   Gusts: 18mph
Location:  44.958°N, 72.9958°W
Report Text: KFSO 221515Z AUTO 01011G16KT 10SM -RA BKN006 BKN060 OVC075 08/07 A3023 RMK AO2 T00750065
Loading
Personal Weather Stations






























Interactive Weather Map
Tropical Storm Tracking
New forecast layout! Learn more

10-Day Weather Forecast

Advertisements
Track Severe Weather on mobile